createdAt,value
2022-09-05T00:00:11.639Z,1.48
2022-09-05T00:02:48.640Z,1.65
2022-09-05T00:04:58.780Z,1.98
2022-09-05T00:07:43.368Z,1.13
2022-09-05T00:10:05.809Z,0.77
2022-09-05T00:12:10.362Z,6.47
2022-09-05T00:15:16.936Z,2.42
2022-09-05T00:17:47.225Z,2.17
2022-09-05T00:24:21.887Z,1.38
2022-09-05T00:24:27.842Z,1.67
2022-09-05T00:25:48.532Z,2.42
2022-09-05T00:28:02.203Z,5.28
2022-09-05T00:31:07.912Z,2.75
2022-09-05T00:33:53.140Z,4.18
2022-09-05T00:36:13.811Z,2.33
2022-09-05T00:38:19.277Z,2.45
2022-09-05T00:40:37.935Z,1.48
2022-09-05T00:42:41.023Z,3.08
2022-09-05T00:45:14.606Z,2.25
2022-09-05T00:48:03.339Z,1.65
2022-09-05T00:50:36.089Z,2.38
2022-09-05T00:53:07.311Z,3.22
2022-09-05T00:55:59.665Z,6.03
2022-09-05T00:58:39.116Z,4.00
2022-09-05T01:00:56.540Z,3.45
2022-09-05T01:03:11.284Z,1.27
2022-09-05T01:05:37.301Z,2.05
2022-09-05T01:07:50.259Z,13.93
2022-09-05T01:09:57.145Z,2.70
2022-09-05T01:12:19.235Z,2.05
2022-09-05T01:14:48.895Z,2.92
2022-09-05T01:17:19.026Z,4.60
2022-09-05T01:19:45.847Z,2.88
2022-09-05T01:22:09.619Z,1.40
2022-09-05T01:24:47.043Z,3.50
2022-09-05T01:27:00.467Z,2.60
2022-09-05T01:29:19.654Z,0.88
2022-09-05T01:31:42.902Z,1.35
2022-09-05T01:33:59.420Z,2.30
2022-09-05T01:36:29.081Z,2.72
2022-09-05T01:38:40.934Z,2.25
2022-09-05T01:41:18.710Z,3.45
2022-09-05T01:43:51.918Z,5.15
2022-09-05T01:46:26.034Z,3.13
2022-09-05T01:48:42.436Z,4.90
2022-09-05T01:51:28.930Z,3.17
2022-09-05T01:53:36.666Z,2.50
2022-09-05T01:56:16.408Z,2.03
2022-09-05T01:58:38.384Z,4.80
2022-09-05T02:00:47.093Z,1.30
2022-09-05T02:03:09.316Z,1.73
2022-09-05T02:05:47.419Z,2.55
2022-09-05T02:08:08.425Z,1.45
2022-09-05T02:10:34.889Z,2.85
2022-09-05T02:13:30.115Z,7.88
2022-09-05T02:15:59.571Z,4.13
2022-09-05T02:18:11.222Z,4.30
2022-09-05T02:20:27.009Z,1.63
2022-09-05T02:22:48.693Z,2.53
2022-09-05T02:28:05.227Z,8.35
2022-09-05T02:30:15.577Z,2.47
2022-09-05T02:33:10.157Z,4.45
2022-09-05T02:35:19.000Z,2.58
2022-09-05T02:38:18.375Z,2.45
2022-09-05T02:45:03.113Z,3.90
2022-09-05T02:45:13.547Z,3.17
2022-09-05T02:45:39.794Z,2.22
2022-09-05T02:48:06.943Z,6.38
2022-09-05T02:54:31.292Z,4.85
2022-09-05T02:57:46.180Z,2.83
2022-09-05T02:57:47.030Z,3.95
2022-09-05T02:58:06.188Z,4.32
2022-09-05T03:00:23.540Z,5.88
2022-09-05T03:03:09.829Z,4.32
2022-09-05T03:05:19.122Z,1.80
2022-09-05T03:07:23.609Z,10.73
2022-09-05T03:09:44.165Z,4.00
2022-09-05T03:12:29.156Z,3.63
2022-09-05T03:14:48.515Z,4.65
2022-09-05T03:17:09.789Z,4.10
2022-09-05T03:19:37.803Z,4.10
2022-09-05T03:22:11.651Z,4.53
2022-09-05T03:24:31.508Z,3.50
2022-09-05T03:27:02.279Z,3.55
2022-09-05T03:29:28.891Z,5.13
2022-09-05T03:31:51.204Z,4.28
2022-09-05T03:34:26.923Z,5.00
2022-09-05T03:36:47.300Z,2.80
2022-09-05T03:39:25.978Z,3.70
2022-09-05T03:41:50.063Z,6.70
2022-09-05T03:44:26.360Z,11.27
2022-09-05T03:46:59.069Z,5.70
2022-09-05T03:49:33.843Z,5.47
2022-09-05T03:57:08.677Z,6.28
2022-09-05T03:57:10.994Z,7.25
2022-09-05T03:57:42.320Z,3.08
2022-09-05T04:00:21.891Z,4.72
2022-09-05T04:04:35.130Z,9.27
2022-09-05T04:08:17.302Z,3.72
2022-09-05T04:08:24.099Z,4.90
2022-09-05T04:10:04.813Z,6.10
2022-09-05T04:12:17.225Z,6.05
2022-09-05T04:14:38.839Z,5.75
2022-09-05T04:19:49.861Z,4.35
2022-09-05T04:22:18.443Z,5.75
2022-09-05T04:24:20.304Z,6.57
2022-09-05T04:26:31.391Z,6.05
2022-09-05T04:28:55.821Z,5.55
2022-09-05T04:31:21.307Z,6.70
2022-09-05T04:33:57.817Z,3.47
2022-09-05T04:36:21.313Z,4.75
2022-09-05T04:38:38.981Z,11.63
2022-09-05T04:41:00.846Z,4.55
2022-09-05T04:43:25.009Z,9.90
2022-09-05T04:45:31.138Z,3.25
2022-09-05T04:47:43.026Z,4.45
2022-09-05T04:49:55.042Z,6.93
2022-09-05T04:52:00.397Z,8.60
2022-09-05T04:54:33.518Z,7.55
2022-09-05T04:56:47.393Z,4.88
2022-09-05T05:01:52.384Z,7.75
2022-09-05T05:06:03.771Z,6.10
2022-09-05T05:06:16.910Z,4.07
2022-09-05T05:06:45.005Z,5.15
2022-09-05T05:09:06.952Z,5.80
2022-09-05T05:17:57.092Z,6.95
2022-09-05T05:18:00.978Z,6.93
2022-09-05T05:18:14.997Z,8.52
2022-09-05T05:19:21.756Z,6.32
2022-09-05T05:21:27.655Z,14.63
2022-09-05T05:23:41.459Z,8.40
2022-09-05T05:25:57.338Z,9.05
2022-09-05T05:28:24.103Z,5.53
2022-09-05T05:30:32.159Z,8.98
2022-09-05T05:32:46.733Z,10.02
2022-09-05T05:34:57.445Z,5.95
2022-09-05T05:37:21.395Z,7.47
2022-09-05T05:39:29.305Z,6.15
2022-09-05T05:41:54.075Z,12.45
2022-09-05T05:43:56.231Z,12.15
2022-09-05T05:46:00.878Z,5.28
2022-09-05T05:48:27.866Z,12.75
2022-09-05T05:50:42.631Z,10.13
2022-09-05T05:52:50.379Z,15.73
2022-09-05T05:55:50.586Z,15.10
2022-09-05T05:58:14.693Z,7.75
2022-09-05T06:01:00.245Z,11.57
2022-09-05T06:03:36.638Z,8.30
2022-09-05T06:05:44.826Z,9.63
2022-09-05T06:11:07.421Z,5.57
2022-09-05T06:14:47.958Z,4.18
2022-09-05T06:15:04.345Z,4.50
2022-09-05T06:16:17.070Z,2.90
2022-09-05T06:18:45.461Z,8.20
2022-09-05T06:22:09.468Z,5.53
2022-09-05T06:23:54.014Z,4.75
2022-09-05T06:26:23.362Z,4.25
2022-09-05T06:28:37.246Z,5.50
2022-09-05T06:31:29.500Z,20.17
2022-09-05T06:34:30.867Z,3.70
2022-09-05T06:36:37.816Z,7.00
2022-09-05T06:39:17.316Z,3.25
2022-09-05T06:41:29.258Z,10.25
2022-09-05T06:44:06.831Z,4.55
2022-09-05T06:47:22.914Z,12.57
2022-09-05T06:49:32.340Z,2.95
2022-09-05T06:51:44.921Z,3.00
2022-09-05T06:54:14.250Z,2.88
2022-09-05T06:56:39.764Z,6.38
2022-09-05T06:58:53.576Z,13.45
2022-09-05T07:00:59.239Z,3.78
2022-09-05T07:03:27.232Z,2.22
2022-09-05T07:06:06.845Z,3.53
2022-09-05T07:08:34.827Z,3.83
2022-09-05T07:10:44.604Z,2.55
2022-09-05T07:12:54.261Z,4.05
2022-09-05T07:15:10.782Z,2.80
2022-09-05T07:17:21.653Z,2.42
2022-09-05T07:19:55.861Z,2.38
2022-09-05T07:22:47.398Z,6.22
2022-09-05T07:24:53.713Z,2.20
2022-09-05T07:27:05.111Z,4.05
2022-09-05T07:29:18.374Z,2.35
2022-09-05T07:31:27.330Z,3.13
2022-09-05T07:33:48.341Z,5.70
2022-09-05T07:35:52.909Z,2.97
2022-09-05T07:38:04.711Z,7.07
2022-09-05T07:40:25.257Z,3.92
2022-09-05T07:42:43.916Z,6.32
2022-09-05T07:44:56.976Z,1.63
2022-09-05T07:47:06.426Z,1.65
2022-09-05T07:49:17.197Z,4.32
2022-09-05T07:56:54.863Z,4.68
2022-09-05T07:56:55.620Z,2.80
2022-09-05T07:57:04.126Z,3.97
2022-09-05T07:59:08.677Z,7.18
2022-09-05T08:01:19.325Z,1.77
2022-09-05T08:03:27.796Z,3.55
2022-09-05T08:05:39.620Z,1.58
2022-09-05T08:07:49.541Z,4.57
2022-09-05T08:10:08.662Z,6.40
2022-09-05T08:12:27.959Z,7.10
2022-09-05T08:15:05.019Z,2.17
2022-09-05T08:17:17.998Z,4.00
2022-09-05T08:19:46.285Z,8.43
2022-09-05T08:21:52.247Z,3.28
2022-09-05T08:24:05.594Z,2.53
2022-09-05T08:26:19.368Z,3.63
2022-09-05T08:29:00.017Z,2.25
2022-09-05T08:31:08.196Z,1.88
2022-09-05T08:33:24.043Z,5.78
2022-09-05T08:36:00.928Z,4.68
2022-09-05T08:38:05.290Z,7.00
2022-09-05T08:40:30.384Z,2.95
2022-09-05T08:44:40.266Z,2.33
2022-09-05T08:46:40.508Z,1.45
2022-09-05T08:49:15.513Z,2.65
2022-09-05T08:51:54.157Z,4.13
2022-09-05T08:54:36.240Z,3.60
2022-09-05T08:57:00.718Z,2.67
2022-09-05T08:59:31.741Z,5.75
2022-09-05T09:02:48.085Z,1.90
2022-09-05T09:05:06.781Z,2.67
2022-09-05T09:07:51.636Z,2.85
2022-09-05T09:09:55.790Z,1.77
2022-09-05T09:12:12.632Z,1.33
2022-09-05T09:14:37.414Z,3.85
2022-09-05T09:17:14.328Z,3.67
2022-09-05T09:19:44.333Z,3.30
2022-09-05T09:22:18.574Z,2.15
2022-09-05T09:24:43.123Z,3.00
2022-09-05T09:26:57.571Z,1.65
2022-09-05T09:29:09.115Z,3.30
2022-09-05T09:31:35.593Z,3.00
2022-09-05T09:33:44.905Z,1.55
2022-09-05T09:36:21.867Z,1.25
2022-09-05T09:38:51.405Z,2.95
2022-09-05T09:41:11.508Z,3.08
2022-09-05T09:43:27.578Z,2.33
2022-09-05T09:45:52.306Z,1.60
2022-09-05T09:48:25.924Z,4.22
2022-09-05T09:50:58.942Z,5.57
2022-09-05T09:53:25.326Z,0.82
2022-09-05T09:55:42.696Z,3.42
2022-09-05T09:58:18.487Z,1.75
2022-09-05T10:00:24.271Z,1.60
2022-09-05T10:06:54.070Z,0.70
2022-09-05T10:10:51.338Z,1.00
2022-09-05T10:10:54.451Z,2.05
2022-09-05T10:11:22.633Z,2.38
2022-09-05T10:13:26.879Z,7.47
2022-09-05T10:16:00.239Z,3.15
2022-09-05T10:18:24.236Z,2.83
2022-09-05T10:21:16.743Z,4.57
2022-09-05T10:23:44.728Z,1.70
2022-09-05T10:26:09.282Z,1.48
2022-09-05T10:28:30.279Z,2.65
2022-09-05T10:33:24.305Z,3.83
2022-09-05T10:35:09.843Z,2.60
2022-09-05T10:36:24.914Z,0.50
2022-09-05T10:38:40.529Z,6.70
2022-09-05T10:41:19.774Z,2.63
2022-09-05T10:43:28.427Z,0.85
2022-09-05T10:45:53.580Z,2.35
2022-09-05T10:48:13.950Z,4.75
2022-09-05T10:50:29.308Z,1.13
2022-09-05T10:53:04.453Z,3.38
2022-09-05T10:55:28.234Z,0.95
2022-09-05T10:57:55.165Z,11.27
2022-09-05T11:02:23.922Z,1.58
2022-09-05T11:02:42.411Z,6.53
2022-09-05T11:04:58.390Z,1.17
2022-09-05T11:07:35.700Z,5.32
2022-09-05T11:09:47.265Z,2.45
2022-09-05T11:12:41.802Z,1.17
2022-09-05T11:14:54.218Z,3.08
2022-09-05T11:17:10.972Z,4.22
2022-09-05T11:19:23.977Z,0.85
2022-09-05T11:21:37.616Z,3.33
2022-09-05T11:23:56.904Z,2.25
2022-09-05T11:26:11.021Z,3.00
2022-09-05T11:28:21.854Z,2.58
2022-09-05T11:30:31.904Z,1.25
2022-09-05T11:39:47.611Z,4.13
2022-09-05T11:39:48.172Z,6.07
2022-09-05T11:40:04.534Z,2.35
2022-09-05T11:41:01.519Z,1.95
2022-09-05T11:43:36.322Z,4.65
2022-09-05T11:45:56.341Z,7.82
2022-09-05T11:48:53.239Z,5.93
2022-09-05T11:51:26.021Z,3.47
2022-09-05T11:53:54.640Z,6.28
2022-09-05T11:56:14.846Z,2.60
2022-09-05T11:58:44.825Z,2.00
2022-09-05T12:01:42.017Z,5.07
2022-09-05T12:04:17.303Z,2.67
2022-09-05T12:06:36.580Z,5.18
2022-09-05T12:09:10.826Z,1.33
2022-09-05T12:11:25.562Z,3.40
2022-09-05T12:13:48.633Z,4.90
2022-09-05T12:16:08.405Z,2.80
2022-09-05T12:18:39.014Z,1.33
2022-09-05T12:20:46.864Z,2.83
2022-09-05T12:23:54.040Z,4.35
2022-09-05T12:27:41.952Z,1.60
2022-09-05T12:29:32.904Z,3.88
2022-09-05T12:36:04.060Z,1.73
2022-09-05T12:40:54.720Z,4.13
2022-09-05T12:41:35.631Z,2.30
2022-09-05T12:41:42.040Z,2.72
2022-09-05T12:42:33.133Z,3.50
2022-09-05T12:45:10.474Z,1.98
2022-09-05T12:47:24.119Z,19.08
2022-09-05T12:49:47.285Z,2.90
2022-09-05T12:52:11.890Z,3.63
2022-09-05T12:54:34.646Z,4.82
2022-09-05T12:58:27.111Z,4.22
2022-09-05T13:03:02.254Z,1.83
2022-09-05T13:03:09.840Z,1.27
2022-09-05T13:04:31.994Z,11.63
2022-09-05T13:06:40.339Z,4.38
2022-09-05T13:09:00.146Z,2.92
2022-09-05T13:14:47.524Z,2.25
2022-09-05T13:15:02.408Z,4.15
2022-09-05T13:16:29.757Z,2.65
2022-09-05T13:18:43.041Z,2.47
2022-09-05T13:21:09.117Z,5.57
2022-09-05T13:23:32.351Z,1.50
2022-09-05T13:25:37.401Z,3.50
2022-09-05T13:27:57.001Z,4.32
2022-09-05T13:32:08.901Z,2.90
2022-09-05T13:38:03.242Z,2.75
2022-09-05T13:38:03.467Z,3.65
2022-09-05T13:38:52.554Z,1.08
2022-09-05T13:41:00.314Z,1.58
2022-09-05T13:43:38.548Z,1.95
2022-09-05T13:46:20.885Z,4.65
2022-09-05T13:51:37.700Z,3.58
2022-09-05T13:54:12.336Z,2.53
2022-09-05T13:56:40.440Z,13.45
2022-09-05T13:58:56.470Z,3.38
2022-09-05T14:01:39.627Z,1.10
2022-09-05T14:07:46.266Z,1.77
2022-09-05T14:10:11.931Z,3.05
2022-09-05T14:12:13.881Z,3.20
2022-09-05T14:16:53.818Z,1.70
2022-09-05T14:19:15.791Z,1.83
2022-09-05T14:21:18.152Z,1.38
2022-09-05T14:23:26.949Z,8.02
2022-09-05T14:25:43.129Z,1.08
2022-09-05T14:27:48.196Z,2.15
2022-09-05T14:29:56.135Z,4.85
2022-09-05T14:37:36.374Z,8.40
2022-09-05T14:37:51.597Z,22.38
2022-09-05T14:38:19.352Z,2.05
2022-09-05T14:41:10.807Z,4.75
2022-09-05T14:43:26.859Z,1.70
2022-09-05T14:45:50.983Z,6.65
2022-09-05T14:48:41.018Z,1.30
2022-09-05T14:51:25.267Z,1.48
2022-09-05T14:56:50.129Z,1.25
2022-09-05T15:02:49.861Z,2.10
2022-09-05T15:02:50.861Z,1.70
2022-09-05T15:06:31.521Z,2.50
2022-09-05T15:12:14.287Z,2.22
2022-09-05T15:12:24.050Z,2.88
2022-09-05T15:13:59.126Z,3.55
2022-09-05T15:16:14.446Z,1.77
2022-09-05T15:18:24.851Z,1.25
2022-09-05T15:20:34.258Z,1.85
2022-09-05T15:22:47.962Z,1.35
2022-09-05T15:25:20.346Z,1.67
2022-09-05T15:27:30.700Z,0.80
2022-09-05T15:29:35.871Z,2.78
2022-09-05T15:31:39.365Z,4.57
2022-09-05T15:33:48.766Z,0.95
2022-09-05T15:35:50.771Z,4.25
2022-09-05T15:38:54.441Z,2.42
2022-09-05T15:41:17.295Z,3.10
2022-09-05T15:47:10.653Z,4.22
2022-09-05T15:52:52.731Z,2.70
2022-09-05T16:01:59.209Z,3.50
2022-09-05T16:10:04.113Z,2.92
2022-09-05T16:10:40.811Z,6.15
2022-09-05T16:13:53.211Z,1.98
2022-09-05T16:23:30.675Z,6.47
2022-09-05T16:25:50.732Z,1.40
2022-09-05T16:28:13.104Z,3.70
2022-09-05T16:31:05.608Z,5.30
2022-09-05T16:33:30.368Z,1.48
2022-09-05T16:35:38.659Z,5.60
2022-09-05T16:38:04.407Z,4.53
2022-09-05T16:40:45.271Z,3.80
2022-09-05T16:43:25.588Z,4.60
2022-09-05T16:46:14.441Z,3.53
2022-09-05T16:48:41.408Z,3.97
2022-09-05T16:51:34.815Z,3.85
2022-09-05T16:53:58.113Z,8.93
2022-09-05T16:56:43.617Z,4.88
2022-09-05T16:59:10.317Z,2.72
2022-09-05T17:02:05.953Z,5.53
2022-09-05T17:04:30.763Z,6.50
2022-09-05T17:06:50.704Z,3.47
2022-09-05T17:09:12.199Z,9.63
2022-09-05T17:11:29.817Z,9.73
2022-09-05T17:13:54.312Z,8.75
2022-09-05T17:16:09.456Z,7.15
2022-09-05T17:18:23.765Z,11.90
2022-09-05T17:20:48.850Z,4.45
2022-09-05T17:29:25.338Z,5.53
2022-09-05T17:29:31.434Z,18.85
2022-09-05T17:29:42.213Z,13.80
2022-09-05T17:32:00.953Z,8.98
2022-09-05T17:38:11.882Z,42.33
2022-09-05T17:43:43.473Z,15.65
2022-09-05T17:55:52.721Z,29.60
2022-09-05T17:58:51.616Z,21.92
2022-09-05T18:01:00.559Z,14.30
2022-09-05T18:25:51.906Z,13.65
2022-09-05T18:28:23.311Z,10.30
2022-09-05T18:37:34.975Z,17.27
2022-09-05T18:40:36.395Z,20.45
2022-09-05T18:42:51.537Z,19.48
2022-09-05T18:45:36.387Z,39.30
2022-09-05T18:48:26.532Z,40.10
2022-09-05T18:50:50.845Z,36.80
2022-09-05T18:53:37.220Z,34.17
2022-09-05T18:59:28.482Z,23.80
2022-09-05T19:02:49.967Z,20.27
2022-09-05T19:12:16.261Z,59.97
2022-09-05T19:18:26.844Z,39.17
2022-09-05T19:21:12.419Z,25.67
2022-09-05T19:30:37.986Z,22.80
2022-09-05T19:37:23.969Z,24.83
2022-09-05T19:43:51.187Z,10.00
2022-09-05T19:47:39.852Z,12.40
2022-09-05T19:55:26.534Z,10.77
2022-09-05T20:01:20.567Z,10.77
2022-09-05T20:06:44.162Z,7.30
2022-09-05T20:08:53.884Z,19.05
2022-09-05T20:11:07.652Z,11.82
2022-09-05T20:13:25.352Z,7.20
2022-09-05T20:15:35.990Z,15.10
2022-09-05T20:17:43.385Z,15.35
2022-09-05T20:19:45.708Z,9.18
2022-09-05T20:21:57.036Z,6.97
2022-09-05T20:24:15.371Z,11.82
2022-09-05T20:26:27.581Z,10.35
2022-09-05T20:28:51.430Z,7.82
2022-09-05T20:31:14.073Z,8.68
2022-09-05T20:33:42.803Z,7.38
2022-09-05T20:43:21.751Z,5.38
2022-09-05T20:43:24.420Z,4.97
2022-09-05T20:43:26.513Z,6.93
2022-09-05T20:43:58.159Z,6.75
2022-09-05T20:48:34.511Z,5.20
2022-09-05T20:54:05.740Z,6.68
2022-09-05T20:54:20.748Z,8.45
2022-09-05T20:54:27.073Z,5.07
2022-09-05T20:56:16.897Z,4.45
2022-09-05T20:58:31.357Z,5.93
2022-09-05T21:00:37.899Z,5.72
2022-09-05T21:02:51.647Z,4.78
2022-09-05T21:05:20.377Z,3.83
2022-09-05T21:07:42.186Z,5.50
2022-09-05T21:10:21.786Z,2.47
2022-09-05T21:12:48.291Z,3.53
2022-09-05T21:15:52.153Z,3.90
2022-09-05T21:18:03.271Z,3.22
2022-09-05T21:20:12.361Z,12.38
2022-09-05T21:22:19.415Z,6.63
2022-09-05T21:24:24.635Z,5.05
2022-09-05T21:26:32.976Z,5.10
2022-09-05T21:28:39.642Z,4.45
2022-09-05T21:30:46.360Z,3.40
2022-09-05T21:33:11.485Z,5.20
2022-09-05T21:35:35.328Z,8.15
2022-09-05T21:37:41.603Z,3.95
2022-09-05T21:40:01.373Z,5.43
2022-09-05T21:43:17.334Z,4.47
2022-09-05T21:47:42.245Z,3.33
2022-09-05T21:47:47.403Z,7.72
2022-09-05T21:50:01.336Z,6.90
2022-09-05T21:52:08.467Z,6.30
2022-09-05T21:59:13.516Z,4.97
2022-09-05T21:59:25.570Z,3.10
2022-09-05T21:59:45.353Z,3.88
2022-09-05T22:02:11.827Z,3.67
2022-09-05T22:04:22.294Z,2.80
2022-09-05T22:06:48.859Z,10.67
2022-09-05T22:09:13.160Z,3.28
2022-09-05T22:11:29.818Z,4.28
2022-09-05T22:13:36.243Z,3.40
2022-09-05T22:18:16.876Z,3.05
2022-09-05T22:20:26.314Z,4.90
2022-09-05T22:22:43.520Z,5.80
2022-09-05T22:25:27.756Z,2.58
2022-09-05T22:27:33.883Z,2.47
2022-09-05T22:29:37.080Z,6.47
2022-09-05T22:31:39.617Z,3.13
2022-09-05T22:33:41.880Z,3.95
2022-09-05T22:35:44.909Z,3.67
2022-09-05T22:38:07.026Z,4.25
2022-09-05T22:40:19.697Z,4.55
2022-09-05T22:42:21.544Z,4.45
2022-09-05T22:44:23.466Z,3.92
2022-09-05T22:46:25.380Z,3.67
2022-09-05T22:48:28.524Z,7.13
2022-09-05T22:50:35.853Z,6.57
2022-09-05T22:52:39.672Z,4.10
2022-09-05T22:54:41.497Z,3.53
2022-09-05T22:56:43.427Z,10.30
2022-09-05T22:58:45.698Z,5.70
2022-09-05T23:00:50.628Z,4.72
2022-09-05T23:03:03.549Z,2.47
2022-09-05T23:05:07.131Z,3.33
2022-09-05T23:07:09.898Z,4.47
2022-09-05T23:09:14.798Z,3.28
2022-09-05T23:11:19.884Z,3.70
2022-09-05T23:13:21.849Z,3.40
2022-09-05T23:15:24.602Z,4.15
2022-09-05T23:17:30.793Z,7.70
2022-09-05T23:19:39.474Z,7.22
2022-09-05T23:21:41.384Z,4.95
2022-09-05T23:43:09.637Z,2.30
2022-09-05T23:45:13.582Z,5.85
2022-09-05T23:47:17.450Z,6.63
2022-09-05T23:58:51.886Z,5.22
